Time;durP1;ratioP1;P1;durP2;ratioP2;P2;SDS_P1;SDS_P2;PMS_P1;PMS_P2;Temp;Humidity;BMP_temperature;BMP_pressure;BME280_temperature;BME280_humidity;BME280_pressure;Samples;Min_cycle;Max_cycle;Signal;HPM_P1;HPM_P2
2022/12/06 00:01:45;;;;;;;20.80;9.80;;;;;;;5.74;73.20;94514.75;5084718;28;20024;-81
2022/12/06 00:04:15;;;;;;;19.20;9.25;;;;;;;5.78;72.88;94513.97;5084937;28;20334;-81
2022/12/06 00:06:50;;;;;;;17.45;8.70;;;;;;;5.78;72.67;94507.84;5084636;28;20227;-82
2022/12/06 00:09:28;;;;;;;22.55;9.63;;;;;;;5.79;72.73;94506.81;5084704;28;20091;-83
2022/12/06 00:11:54;;;;;;;24.58;10.55;;;;;;;5.79;72.78;94504.94;5084699;28;20078;-83
2022/12/06 00:14:19;;;;;;;24.45;10.05;;;;;;;5.80;72.64;94495.97;5084396;28;20039;-83
2022/12/06 00:16:45;;;;;;;19.88;9.23;;;;;;;5.79;72.79;94497.00;5084409;28;20024;-83
2022/12/06 00:19:16;;;;;;;18.52;10.05;;;;;;;5.81;72.68;94494.91;5083265;28;20188;-83
2022/12/06 00:21:42;;;;;;;21.65;8.43;;;;;;;5.82;72.66;94499.13;5084325;28;20027;-83
2022/12/06 00:24:14;;;;;;;18.77;9.90;;;;;;;5.83;72.67;94506.00;5084157;28;20036;-83
2022/12/06 00:26:42;;;;;;;16.42;8.27;;;;;;;5.83;72.18;94498.06;5084230;28;20022;-83
2022/12/06 00:29:18;;;;;;;18.77;8.52;;;;;;;5.80;72.08;94503.91;5084266;28;20024;-84
2022/12/06 00:31:44;;;;;;;20.90;8.52;;;;;;;5.77;72.11;94504.44;5084090;28;20024;-83
2022/12/06 00:34:10;;;;;;;22.80;9.38;;;;;;;5.73;72.20;94503.38;5084068;28;20027;-83
2022/12/06 00:36:38;;;;;;;18.42;8.85;;;;;;;5.71;72.23;94508.13;5084173;28;20097;-83
2022/12/06 00:39:15;;;;;;;18.67;9.10;;;;;;;5.71;71.99;94524.00;5082710;28;20210;-83
2022/12/06 00:41:41;;;;;;;16.38;8.20;;;;;;;5.69;72.60;94507.59;5082783;28;20322;-83
2022/12/06 00:44:06;;;;;;;17.35;7.72;;;;;;;5.70;72.41;94511.84;5084053;28;20086;-80
2022/12/06 00:46:33;;;;;;;21.33;7.55;;;;;;;5.75;72.40;94509.19;5084066;28;20036;-80
2022/12/06 00:49:00;;;;;;;19.00;8.30;;;;;;;5.73;72.27;94505.22;5083962;28;20079;-80
2022/12/06 00:51:27;;;;;;;15.60;7.00;;;;;;;5.79;72.34;94504.16;5083663;28;20012;-81
2022/12/06 00:53:53;;;;;;;12.60;6.70;;;;;;;5.76;71.98;94505.50;5083714;28;20116;-81
2022/12/06 00:56:18;;;;;;;10.88;6.10;;;;;;;5.74;72.39;94497.03;5083432;28;20315;-81
2022/12/06 00:58:44;;;;;;;12.10;6.00;;;;;;;5.76;72.30;94494.91;5083170;28;20043;-81
2022/12/06 01:01:27;;;;;;;16.75;6.70;;;;;;;5.77;72.25;94488.56;5083480;28;20023;-80
2022/12/06 01:03:56;;;;;;;12.13;6.72;;;;;;;5.82;72.45;94487.75;5083411;28;20342;-80
2022/12/06 01:06:26;;;;;;;8.98;5.50;;;;;;;5.86;72.72;94499.38;5083293;28;20146;-82
2022/12/06 01:08:56;;;;;;;11.77;5.78;;;;;;;5.92;72.74;94493.03;5083192;28;20373;-82
2022/12/06 01:11:23;;;;;;;15.88;7.18;;;;;;;5.93;72.40;94486.69;5082146;28;20051;-82
2022/12/06 01:13:49;;;;;;;12.82;7.30;;;;;;;5.97;72.42;94489.63;5083259;28;20039;-84
2022/12/06 01:16:18;;;;;;;17.05;8.25;;;;;;;6.00;72.21;94483.78;5082909;28;20020;-81
2022/12/06 01:18:44;;;;;;;12.93;7.68;;;;;;;6.02;72.36;94479.00;5082926;28;20017;-82
2022/12/06 01:21:15;;;;;;;15.60;7.50;;;;;;;6.03;72.45;94475.31;5083116;28;20027;-83
2022/12/06 01:23:42;;;;;;;20.90;8.50;;;;;;;6.07;72.19;94481.66;5083180;28;20028;-81
2022/12/06 01:26:15;;;;;;;17.17;8.18;;;;;;;6.07;72.32;94475.56;5083010;28;20219;-82
2022/12/06 01:28:40;;;;;;;;;;;;;;;6.04;72.32;94471.59;5083431;28;20370;-84
2022/12/06 01:31:06;;;;;;;17.20;7.38;;;;;;;5.98;71.85;94467.38;5082748;28;19912;-80
2022/12/06 01:33:32;;;;;;;13.30;5.68;;;;;;;5.89;71.46;94468.97;5082852;28;20020;-82
2022/12/06 01:35:57;;;;;;;12.35;5.78;;;;;;;5.79;71.83;94470.56;5083243;28;20028;-83
2022/12/06 01:38:23;;;;;;;12.63;5.43;;;;;;;5.74;72.22;94465.28;5082832;28;20282;-82
2022/12/06 01:40:48;;;;;;;14.50;6.40;;;;;;;5.78;72.09;94469.00;5082744;28;20024;-82
2022/12/06 01:43:35;;;;;;;12.73;6.35;;;;;;;5.77;72.51;94464.75;5082645;28;20435;-81
2022/12/06 01:46:27;;;;;;;11.65;5.80;;;;;;;5.75;72.29;94458.94;5082628;28;20028;-81
2022/12/06 01:48:59;;;;;;;9.18;4.82;;;;;;;5.72;72.11;94459.47;5082667;28;20353;-81
2022/12/06 01:51:24;;;;;;;15.77;6.72;;;;;;;5.70;72.43;94453.66;5082776;28;20031;-81
2022/12/06 01:53:53;;;;;;;12.70;7.20;;;;;;;5.70;72.49;94463.44;5082464;28;20319;-81
2022/12/06 01:56:20;;;;;;;12.48;5.68;;;;;;;5.67;72.53;94463.97;5082518;28;20024;-81
2022/12/06 01:58:49;;;;;;;20.45;6.65;;;;;;;5.61;72.81;94455.25;5082476;28;20107;-82
2022/12/06 02:01:15;;;;;;;10.30;5.22;;;;;;;5.60;72.59;94449.19;5082537;28;20021;-82
2022/12/06 02:03:42;;;;;;;9.63;5.90;;;;;;;5.56;72.71;94456.06;5082604;28;20329;-82
2022/12/06 02:06:08;;;;;;;11.68;5.80;;;;;;;5.54;72.70;94446.81;5082464;28;20021;-82
2022/12/06 02:08:35;;;;;;;11.38;5.63;;;;;;;5.55;72.87;94440.44;5082302;28;20126;-81
2022/12/06 02:11:02;;;;;;;12.98;6.03;;;;;;;5.59;72.75;94438.84;5082455;28;20020;-81
2022/12/06 02:13:29;;;;;;;14.50;6.65;;;;;;;5.60;72.78;94443.09;5082659;28;20043;-81
2022/12/06 02:16:14;;;;;;;13.68;6.15;;;;;;;5.60;72.79;94449.19;5082416;28;20024;-82
2022/12/06 02:18:45;;;;;;;11.50;5.80;;;;;;;5.66;72.91;94446.50;5082217;28;20025;-81
2022/12/06 02:21:23;;;;;;;12.02;6.40;;;;;;;5.70;73.09;94437.78;5082382;28;20055;-83
2022/12/06 02:24:01;;;;;;;17.48;6.50;;;;;;;5.74;72.82;94435.38;5082177;28;20092;-82
2022/12/06 02:26:43;;;;;;;13.70;6.40;;;;;;;5.74;72.73;94427.44;5082096;28;20024;-82
2022/12/06 02:29:11;;;;;;;;;;;;;;;5.74;72.67;94430.91;5082608;28;20024;-82
2022/12/06 02:31:42;;;;;;;10.88;5.57;;;;;;;5.71;72.88;94428.78;5082246;28;19905;-81
2022/12/06 02:34:20;;;;;;;10.85;5.65;;;;;;;5.69;72.42;94430.91;5082176;28;20032;-81
2022/12/06 02:37:12;;;;;;;10.80;6.25;;;;;;;5.67;72.01;94425.09;5082291;28;20020;-81
2022/12/06 02:39:45;;;;;;;13.40;6.28;;;;;;;5.66;72.25;94430.63;5080514;28;20036;-83
2022/12/06 02:42:17;;;;;;;11.40;6.25;;;;;;;5.59;72.28;94434.34;5084100;28;20034;-82
2022/12/06 02:44:54;;;;;;;12.25;6.60;;;;;;;5.45;72.71;94420.09;5085964;28;20027;-84
2022/12/06 02:47:24;;;;;;;15.57;7.10;;;;;;;5.37;73.25;94420.63;5086092;28;20222;-79
2022/12/06 02:49:53;;;;;;;16.45;7.57;;;;;;;5.36;73.36;94417.22;5085970;28;20211;-78
2022/12/06 02:52:23;;;;;;;14.10;7.40;;;;;;;5.34;73.38;94424.63;5085906;28;20016;-78
2022/12/06 02:54:51;;;;;;;12.52;6.55;;;;;;;5.32;73.42;94421.44;5086005;28;20054;-80
2022/12/06 02:57:22;;;;;;;13.20;6.20;;;;;;;5.33;73.55;94422.22;5085625;28;20026;-78
2022/12/06 02:59:53;;;;;;;13.18;6.80;;;;;;;5.36;73.56;94422.50;5085417;28;20394;-78
2022/12/06 03:02:20;;;;;;;11.02;5.70;;;;;;;5.41;73.65;94408.47;5085600;28;20020;-80
2022/12/06 03:04:51;;;;;;;19.95;7.03;;;;;;;5.46;73.83;94423.56;5085475;28;20020;-80
2022/12/06 03:07:35;;;;;;;11.57;6.05;;;;;;;5.52;74.01;94419.84;5084022;28;20252;-80
2022/12/06 03:10:23;;;;;;;16.67;6.93;;;;;;;5.59;73.93;94415.06;5085250;28;20017;-80
2022/12/06 03:13:00;;;;;;;12.48;6.95;;;;;;;5.64;73.81;94417.72;5085411;28;20028;-80
2022/12/06 03:15:42;;;;;;;13.48;7.00;;;;;;;5.67;73.46;94413.72;5084920;28;20064;-81
2022/12/06 03:18:13;;;;;;;10.32;6.03;;;;;;;5.74;73.39;94412.41;5085377;28;20087;-80
2022/12/06 03:20:44;;;;;;;14.02;6.72;;;;;;;5.81;73.69;94414.75;5084865;28;20048;-81
2022/12/06 03:23:15;;;;;;;16.77;7.57;;;;;;;5.83;73.87;94415.28;5084447;28;20044;-81
2022/12/06 03:25:42;;;;;;;12.40;6.65;;;;;;;5.87;73.78;94411.03;5085271;28;20406;-81
2022/12/06 03:28:13;;;;;;;13.52;7.97;;;;;;;5.91;73.29;94413.94;5085301;28;20084;-81
2022/12/06 03:30:41;;;;;;;16.75;7.35;;;;;;;5.95;72.82;94412.34;5085113;28;20040;-81
2022/12/06 03:33:08;;;;;;;15.63;8.18;;;;;;;5.98;72.11;94409.16;5085137;28;20020;-81
2022/12/06 03:35:35;;;;;;;16.23;8.05;;;;;;;5.98;71.62;94406.50;5084962;28;20020;-81
2022/12/06 03:38:08;;;;;;;20.85;7.45;;;;;;;5.96;71.62;94403.34;5085138;28;20020;-81
2022/12/06 03:40:35;;;;;;;;;;;;;;;5.92;71.87;94403.09;5085358;28;20081;-81
2022/12/06 03:43:02;;;;;;;14.13;6.93;;;;;;;5.86;72.14;94404.13;5085026;28;19915;-81
2022/12/06 03:45:36;;;;;;;15.40;7.35;;;;;;;5.86;71.79;94403.34;5085130;28;20027;-81
2022/12/06 03:48:15;;;;;;;17.98;7.07;;;;;;;5.90;72.44;94397.25;5085047;28;20050;-81
2022/12/06 03:50:46;;;;;;;11.30;6.90;;;;;;;5.94;72.69;94400.16;5084840;28;20020;-81
2022/12/06 03:53:12;;;;;;;16.38;7.30;;;;;;;5.97;72.59;94391.72;5084346;28;20028;-81
2022/12/06 03:55:37;;;;;;;13.55;6.90;;;;;;;6.03;72.29;94393.28;5084745;28;20087;-82
2022/12/06 03:58:03;;;;;;;15.18;8.40;;;;;;;6.05;72.38;94388.50;5084568;28;20075;-81
2022/12/06 04:00:29;;;;;;;13.80;7.20;;;;;;;6.04;72.37;94389.56;5084621;28;20319;-81
2022/12/06 04:02:54;;;;;;;14.38;7.88;;;;;;;6.03;71.97;94385.34;5084552;28;20036;-82
2022/12/06 04:05:20;;;;;;;18.20;8.25;;;;;;;6.02;71.76;94389.03;5084535;28;20043;-82
2022/12/06 04:07:45;;;;;;;15.98;8.45;;;;;;;5.97;72.15;94391.72;5084421;28;20249;-82
2022/12/06 04:10:11;;;;;;;14.00;7.28;;;;;;;5.95;71.83;94385.91;5084594;28;20027;-82
2022/12/06 04:15:21;;;;;;;15.18;7.75;;;;;;;5.86;72.32;94395.41;5084206;28;20051;-82
2022/12/06 04:23:02;;;;;;;16.75;8.65;;;;;;;5.75;72.87;94394.66;5084340;28;20038;-82
2022/12/06 04:23:19;;;;;;;20.55;10.02;;;;;;;5.71;73.30;94396.25;5084096;28;20049;-82
2022/12/06 04:25:45;;;;;;;18.75;9.18;;;;;;;5.65;73.45;94392.84;5084104;28;20031;-81
2022/12/06 04:39:07;;;;;;;20.92;9.30;;;;;;;5.63;74.23;94395.75;5083783;28;20260;-82
2022/12/06 04:44:17;;;;;;;19.85;10.27;;;;;;;5.73;74.15;94384.34;5083776;28;20031;-80
2022/12/06 04:46:42;;;;;;;21.15;10.65;;;;;;;5.75;74.01;94394.66;5082367;28;20024;-79
2022/12/06 04:49:08;;;;;;;20.83;9.90;;;;;;;5.77;73.58;94393.31;5083630;28;20020;-79
2022/12/06 04:51:33;;;;;;;17.67;8.65;;;;;;;5.81;73.41;94397.00;5083589;28;20315;-79
2022/12/06 04:53:59;;;;;;;19.50;10.15;;;;;;;5.77;73.53;94390.69;5083726;28;20326;-79
2022/12/06 04:56:24;;;;;;;21.48;9.63;;;;;;;5.81;73.13;94386.44;5083559;28;20020;-80
2022/12/06 04:58:50;;;;;;;20.10;10.43;;;;;;;5.81;73.38;94399.66;5083157;28;20212;-80
2022/12/06 05:01:15;;;;;;;22.30;10.82;;;;;;;5.83;73.30;94396.75;5083108;28;20051;-79
2022/12/06 05:03:41;;;;;;;19.17;9.88;;;;;;;5.85;73.15;94401.78;5083022;28;20017;-80
2022/12/06 05:06:07;;;;;;;25.08;11.88;;;;;;;5.85;73.28;94401.78;5083122;28;20171;-80
2022/12/06 05:08:32;;;;;;;19.33;9.48;;;;;;;5.85;73.13;94407.06;5083288;28;20196;-80
2022/12/06 05:10:58;;;;;;;21.95;9.25;;;;;;;5.85;73.20;94397.28;5083170;28;20020;-79
2022/12/06 05:13:24;;;;;;;20.73;8.18;;;;;;;5.87;73.03;94397.00;5083340;28;20020;-80
2022/12/06 05:15:50;;;;;;;20.05;9.40;;;;;;;5.90;73.05;94396.47;5083065;28;20099;-79
2022/12/06 05:18:16;;;;;;;21.33;9.85;;;;;;;5.95;73.35;94394.63;5083093;28;20027;-79
2022/12/06 05:20:41;;;;;;;18.48;9.25;;;;;;;5.97;73.49;94397.00;5083058;28;20048;-80
2022/12/06 05:23:07;;;;;;;16.38;9.43;;;;;;;6.00;73.46;94396.44;5083162;28;20035;-80
2022/12/06 05:25:35;;;;;;;24.25;9.73;;;;;;;6.05;73.50;94399.09;5083177;28;20027;-82
2022/12/06 05:28:00;;;;;;;20.52;10.35;;;;;;;6.09;73.18;94386.91;5083291;28;20021;-80
2022/12/06 05:30:26;;;;;;;19.20;9.90;;;;;;;6.12;73.16;94390.84;5083011;28;20019;-82
2022/12/06 05:32:51;;;;;;;15.93;8.98;;;;;;;6.14;72.81;94389.50;5083057;28;20024;-82
2022/12/06 05:35:16;;;;;;;31.08;9.68;;;;;;;6.19;72.41;94394.00;5082894;28;20021;-83
2022/12/06 05:37:42;;;;;;;22.67;10.02;;;;;;;6.16;72.71;94397.97;5083065;28;20221;-82
2022/12/06 05:40:08;;;;;;;15.50;8.27;;;;;;;6.18;72.68;94395.06;5082765;28;20016;-83
2022/12/06 05:42:33;;;;;;;17.20;9.10;;;;;;;6.15;72.06;94396.41;5082830;28;20025;-82
2022/12/06 05:44:59;;;;;;;20.27;9.05;;;;;;;6.18;72.23;94401.13;5083138;28;20020;-83
2022/12/06 05:47:24;;;;;;;20.85;9.07;;;;;;;6.21;72.04;94392.66;5082707;28;20020;-83
2022/12/06 05:49:50;;;;;;;20.55;9.55;;;;;;;6.23;71.88;94387.09;5082929;28;20325;-84
2022/12/06 05:52:15;;;;;;;16.58;8.80;;;;;;;6.23;71.99;94385.25;5082819;28;20218;-84
2022/12/06 05:54:41;;;;;;;18.63;7.55;;;;;;;6.29;71.74;94382.56;5082861;28;20024;-81
2022/12/06 05:57:06;;;;;;;15.00;7.60;;;;;;;6.32;71.71;94379.38;5082550;28;20061;-81
2022/12/06 05:59:32;;;;;;;15.00;7.97;;;;;;;6.34;71.74;94377.25;5082692;28;20040;-81
2022/12/06 06:01:57;;;;;;;14.65;8.65;;;;;;;6.37;71.43;94382.78;5082886;28;20044;-81
2022/12/06 06:04:23;;;;;;;15.88;8.65;;;;;;;6.41;70.95;94383.84;5081268;28;20318;-80
2022/12/06 06:06:48;;;;;;;14.20;7.20;;;;;;;6.41;70.53;94393.59;5082671;28;20039;-83
2022/12/06 06:09:14;;;;;;;17.48;7.65;;;;;;;6.38;70.60;94384.38;5082643;28;20025;-83
2022/12/06 06:11:39;;;;;;;18.42;9.10;;;;;;;6.36;70.56;94383.06;5082524;28;20096;-83
2022/12/06 06:14:05;;;;;;;19.95;7.63;;;;;;;6.39;70.15;94378.03;5082624;28;20056;-83
2022/12/06 06:16:31;;;;;;;25.25;9.10;;;;;;;6.43;70.25;94371.13;5085350;28;20316;-83
2022/12/06 06:18:57;;;;;;;22.92;9.55;;;;;;;6.47;70.29;94379.28;5086678;28;20017;-83
2022/12/06 06:21:22;;;;;;;27.92;10.77;;;;;;;6.51;70.44;94376.88;5086519;28;20028;-81
2022/12/06 06:23:48;;;;;;;33.40;11.63;;;;;;;6.54;70.59;94376.34;5086627;28;20013;-85
2022/12/06 06:26:13;;;;;;;34.72;12.40;;;;;;;6.58;70.57;94387.97;5086644;28;20008;-81
2022/12/06 06:28:38;;;;;;;28.95;11.98;;;;;;;6.62;70.64;94394.31;5085359;28;20099;-82
2022/12/06 06:31:05;;;;;;;30.88;11.52;;;;;;;6.65;70.63;94393.75;5086467;28;20016;-82
2022/12/06 06:33:32;;;;;;;23.70;10.63;;;;;;;6.67;70.39;94390.81;5086581;28;20016;-83
2022/12/06 06:35:58;;;;;;;31.63;9.50;;;;;;;6.70;70.42;94392.94;5086275;28;20066;-79
2022/12/06 06:38:23;;;;;;;21.42;9.98;;;;;;;6.73;70.27;94384.44;5086250;28;20031;-79
2022/12/06 06:40:49;;;;;;;22.25;9.82;;;;;;;6.77;70.41;94391.53;5086173;28;20040;-79
2022/12/06 06:43:17;;;;;;;29.35;10.18;;;;;;;6.83;70.94;94385.13;5086293;28;20073;-80
2022/12/06 06:46:05;;;;;;;31.40;11.85;;;;;;;6.95;71.15;94381.34;5086096;28;20099;-80
2022/12/06 06:48:34;;;;;;;30.60;11.27;;;;;;;7.03;71.05;94383.41;5086029;28;20028;-80
2022/12/06 06:51:05;;;;;;;26.02;11.60;;;;;;;7.13;71.00;94387.84;5086359;28;20199;-81
2022/12/06 06:53:31;;;;;;;24.65;11.10;;;;;;;7.18;70.83;94375.31;5086133;28;20422;-80
2022/12/06 06:55:56;;;;;;;28.50;10.95;;;;;;;7.26;70.58;94381.09;5086005;28;20020;-79
2022/12/06 06:58:22;;;;;;;40.58;12.10;;;;;;;7.35;70.37;94368.84;5084450;28;20060;-79
2022/12/06 07:00:56;;;;;;;33.28;12.10;;;;;;;7.43;69.43;94360.25;5085865;28;20215;-80
2022/12/06 07:03:22;;;;;;;31.10;10.85;;;;;;;7.38;69.07;94369.03;5085862;28;20028;-80
2022/12/06 07:05:56;;;;;;;26.02;10.20;;;;;;;7.36;68.98;94383.66;5085826;28;20016;-81
2022/12/06 07:08:21;;;;;;;26.13;11.45;;;;;;;7.38;68.90;94374.34;5085751;28;20218;-81
2022/12/06 07:10:47;;;;;;;29.13;10.55;;;;;;;7.37;68.90;94375.44;5085497;28;20054;-80
2022/12/06 07:13:21;;;;;;;24.40;10.38;;;;;;;7.38;68.87;94377.00;5085615;28;20023;-80
2022/12/06 07:15:47;;;;;;;30.40;10.77;;;;;;;7.42;68.66;94375.38;5085663;28;20016;-81
2022/12/06 07:18:12;;;;;;;35.63;11.15;;;;;;;7.43;68.59;94370.88;5085782;28;20127;-81
2022/12/06 07:20:38;;;;;;;32.63;13.02;;;;;;;7.45;68.72;94366.09;5085512;28;20024;-81
2022/12/06 07:23:03;;;;;;;29.35;10.98;;;;;;;7.49;68.61;94374.25;5085111;28;20023;-81
2022/12/06 07:25:31;;;;;;;36.17;10.75;;;;;;;7.53;68.31;94360.16;5085715;28;20091;-80
2022/12/06 07:27:56;;;;;;;30.40;12.43;;;;;;;7.54;68.48;94371.56;5084568;28;20020;-80
2022/12/06 07:30:22;;;;;;;28.85;9.95;;;;;;;7.60;68.20;94370.44;5085286;28;20049;-80
2022/12/06 07:32:47;;;;;;;32.53;10.30;;;;;;;7.61;67.81;94372.81;5085224;28;20318;-80
2022/12/06 07:35:13;;;;;;;27.70;8.75;;;;;;;7.66;67.99;94368.53;5085095;28;20311;-78
2022/12/06 07:37:42;;;;;;;32.65;9.25;;;;;;;7.71;67.73;94366.59;5085330;28;20024;-81
2022/12/06 07:40:08;;;;;;;25.90;9.57;;;;;;;7.77;67.15;94365.47;5084987;28;20058;-80
2022/12/06 07:45:17;;;;;;;32.30;10.20;;;;;;;7.87;66.50;94364.56;5085176;28;20035;-81
2022/12/06 07:47:43;;;;;;;26.83;9.85;;;;;;;7.95;66.20;94360.50;5085013;28;20016;-80
2022/12/06 07:50:13;;;;;;;29.00;9.93;;;;;;;8.01;65.93;94359.34;5085056;28;20047;-80
2022/12/06 07:52:39;;;;;;;39.42;10.57;;;;;;;8.09;65.63;94356.06;5084859;28;20024;-81
2022/12/06 07:55:05;;;;;;;30.30;9.65;;;;;;;8.16;65.16;94366.34;5085114;28;20029;-80
2022/12/06 07:57:31;;;;;;;22.83;9.40;;;;;;;8.22;65.14;94371.31;5085147;28;20319;-81
2022/12/06 07:59:56;;;;;;;32.53;10.80;;;;;;;8.29;64.99;94370.19;5083509;28;20036;-81
2022/12/06 08:02:27;;;;;;;24.88;9.55;;;;;;;8.34;64.32;94378.06;5084449;28;20028;-81
2022/12/06 08:04:53;;;;;;;30.85;10.18;;;;;;;8.40;64.30;94369.72;5084789;28;20218;-81
2022/12/06 08:07:20;;;;;;;26.33;10.20;;;;;;;8.48;63.84;94368.34;5084814;28;20254;-80
2022/12/06 08:09:46;;;;;;;22.10;7.72;;;;;;;8.53;63.61;94373.59;5084388;28;20083;-81
2022/12/06 08:12:12;;;;;;;22.13;7.68;;;;;;;8.61;63.16;94364.97;5084605;28;20087;-80
2022/12/06 08:14:37;;;;;;;24.30;7.88;;;;;;;8.67;62.72;94371.00;5084565;28;20327;-81
2022/12/06 08:17:04;;;;;;;17.98;7.00;;;;;;;8.78;62.23;94372.44;5084360;28;20032;-79
2022/12/06 08:19:29;;;;;;;18.00;5.75;;;;;;;8.87;61.42;94369.91;5084627;28;20036;-80
2022/12/06 08:21:55;;;;;;;13.57;6.57;;;;;;;8.94;61.37;94361.56;5084207;28;20066;-79
2022/12/06 08:24:21;;;;;;;16.20;6.50;;;;;;;8.98;61.27;94366.00;5084103;28;20023;-80
2022/12/06 08:26:47;;;;;;;16.55;6.22;;;;;;;9.01;60.81;94360.09;5084421;28;20039;-79
2022/12/06 08:29:12;;;;;;;13.07;6.00;;;;;;;9.10;60.51;94362.09;5084210;28;20211;-80
2022/12/06 08:31:38;;;;;;;14.98;5.70;;;;;;;9.15;60.11;94356.72;5083123;28;20026;-80
2022/12/06 08:34:03;;;;;;;12.82;5.93;;;;;;;9.15;59.93;94356.72;5083977;28;20020;-82
2022/12/06 08:36:29;;;;;;;15.07;6.18;;;;;;;9.15;59.85;94354.06;5084064;28;20016;-82
2022/12/06 08:38:55;;;;;;;16.00;6.22;;;;;;;9.14;59.95;94355.94;5083032;28;20023;-81
2022/12/06 08:44:10;;;;;;;15.00;6.72;;;;;;;9.22;59.48;94359.81;5083838;28;20130;-82
2022/12/06 08:46:35;;;;;;;12.90;5.97;;;;;;;9.19;59.66;94355.81;5083860;28;20103;-80
2022/12/06 08:49:01;;;;;;;13.02;5.40;;;;;;;9.24;59.72;94357.63;5083853;28;20021;-83
2022/12/06 08:51:27;;;;;;;11.77;5.32;;;;;;;9.22;59.56;94357.13;5083551;28;20179;-82
2022/12/06 08:53:54;;;;;;;11.15;5.35;;;;;;;9.26;59.44;94355.47;5083628;28;20032;-79
2022/12/06 08:56:20;;;;;;;17.27;6.07;;;;;;;9.20;59.30;94352.09;5083611;28;20082;-82
2022/12/06 08:58:46;;;;;;;14.47;6.10;;;;;;;9.21;59.73;94348.34;5082227;28;20048;-84
2022/12/06 09:01:14;;;;;;;18.10;7.15;;;;;;;9.29;59.55;94352.22;5082323;28;20341;-85
2022/12/06 09:03:39;;;;;;;15.90;6.63;;;;;;;9.27;59.55;94351.72;5083448;28;20025;-84
2022/12/06 09:06:06;;;;;;;16.67;7.63;;;;;;;9.29;59.64;94349.56;5083574;28;20099;-82
2022/12/06 09:08:31;;;;;;;19.20;6.60;;;;;;;9.31;59.57;94341.28;5083728;28;20260;-80
2022/12/06 09:10:57;;;;;;;14.55;6.78;;;;;;;9.34;59.70;94346.00;5083308;28;20029;-81
2022/12/06 09:13:22;;;;;;;15.02;7.32;;;;;;;9.34;59.49;94330.03;5083287;28;20326;-82
2022/12/06 09:15:47;;;;;;;14.55;6.47;;;;;;;9.33;59.69;94328.47;5083432;28;20024;-81
2022/12/06 09:18:13;;;;;;;21.55;6.95;;;;;;;9.30;59.22;94319.22;5083293;28;20030;-82
2022/12/06 09:20:40;;;;;;;25.00;8.25;;;;;;;9.24;59.75;94310.53;5083195;28;20330;-80
2022/12/06 09:23:05;;;;;;;23.13;7.97;;;;;;;9.27;59.59;94305.72;5083216;28;20024;-79
2022/12/06 09:25:31;;;;;;;16.67;6.93;;;;;;;9.31;59.57;94302.16;5083226;28;20259;-81
2022/12/06 09:27:58;;;;;;;41.58;8.38;;;;;;;9.32;59.34;94306.41;5083153;28;20089;-82
2022/12/06 09:30:24;;;;;;;20.23;8.65;;;;;;;9.35;59.56;94305.81;5083238;28;20012;-81
2022/12/06 09:32:49;;;;;;;23.55;7.07;;;;;;;9.44;59.52;94297.94;5083219;28;20249;-82
2022/12/06 09:35:15;;;;;;;19.38;8.20;;;;;;;9.44;59.18;94288.09;5083164;28;20039;-83
2022/12/06 09:37:40;;;;;;;16.65;7.32;;;;;;;9.49;59.12;94273.13;5083047;28;20012;-82
2022/12/06 09:40:13;;;;;;;15.13;7.13;;;;;;;9.46;59.27;94266.50;5082861;28;20054;-82
2022/12/06 09:42:54;;;;;;;26.38;8.45;;;;;;;9.51;59.08;94263.75;5082698;28;20029;-80
2022/12/06 09:45:49;;;;;;;19.73;8.80;;;;;;;9.63;59.26;94252.63;5082922;28;20024;-83
2022/12/06 09:48:40;;;;;;;22.65;8.40;;;;;;;9.75;58.84;94255.56;5082842;28;20219;-84
2022/12/06 09:51:24;;;;;;;22.88;7.88;;;;;;;9.85;58.56;94254.56;5082667;28;20023;-85
2022/12/06 09:54:10;;;;;;;14.70;7.65;;;;;;;9.92;57.84;94254.16;5082891;28;20032;-84
2022/12/06 09:56:49;;;;;;;25.90;8.70;;;;;;;9.96;57.97;94255.91;5082623;28;20016;-82
2022/12/06 09:59:24;;;;;;;23.10;7.85;;;;;;;10.06;57.95;94259.47;5082514;28;20045;-81
2022/12/06 10:02:16;;;;;;;22.58;9.25;;;;;;;10.17;56.98;94261.59;5082785;28;20071;-78
2022/12/06 10:05:13;;;;;;;20.48;9.88;;;;;;;10.13;57.29;94247.28;5082523;28;20027;-82
2022/12/06 10:07:59;;;;;;;20.42;9.60;;;;;;;10.16;57.40;94238.72;5082564;28;20063;-84
2022/12/06 10:10:54;;;;;;;23.25;10.52;;;;;;;10.22;57.25;94232.19;5075277;28;20099;-83
2022/12/06 10:13:53;;;;;;;26.42;13.35;;;;;;;10.27;57.12;94228.59;5082566;28;20043;-82
2022/12/06 10:16:31;;;;;;;31.33;10.55;;;;;;;10.34;57.00;94222.88;5082418;28;20031;-82
2022/12/06 10:19:25;;;;;;;30.45;15.05;;;;;;;10.43;56.76;94208.53;5082606;28;20025;-81
2022/12/06 10:21:56;;;;;;;44.15;18.50;;;;;;;10.47;56.92;94211.41;5082226;28;20108;-85
2022/12/06 10:24:36;;;;;;;27.83;13.40;;;;;;;10.56;56.67;94204.25;5081274;28;20027;-85
2022/12/06 10:27:19;;;;;;;20.20;9.00;;;;;;;10.65;55.94;94206.97;5082486;28;20020;-83
2022/12/06 10:30:00;;;;;;;35.17;9.80;;;;;;;10.68;56.17;94202.91;5083175;28;20036;-86
2022/12/06 10:32:37;;;;;;;35.28;8.75;;;;;;;10.63;56.11;94196.59;5082472;28;20028;-85
2022/12/06 10:35:57;;;;;;;18.95;9.40;;;;;;;10.70;56.34;94201.50;5082386;28;20021;-85
2022/12/06 10:38:23;;;;;;;35.97;14.27;;;;;;;10.77;55.60;94199.19;5040800;28;20066;-84
2022/12/06 10:41:22;;;;;;;22.83;9.18;;;;;;;10.80;55.28;94198.56;5079651;28;20235;-84
2022/12/06 10:44:03;;;;;;;24.90;9.25;;;;;;;10.84;55.41;94198.75;5082195;28;20024;-85
2022/12/06 10:49:31;;;;;;;16.60;8.77;;;;;;;10.83;54.75;94199.88;5082290;28;20031;-84
2022/12/06 10:52:03;;;;;;;15.50;6.75;;;;;;;10.79;54.64;94191.69;5080999;28;20227;-85
2022/12/06 10:54:40;;;;;;;13.48;7.57;;;;;;;10.75;54.56;94195.28;5082132;28;20179;-86
2022/12/06 10:57:15;;;;;;;15.30;8.25;;;;;;;10.66;54.64;94194.41;5082042;28;20227;-86
2022/12/06 11:00:00;;;;;;;11.70;7.03;;;;;;;10.66;54.89;94186.41;5080603;28;20044;-86
2022/12/06 11:02:47;;;;;;;16.95;7.97;;;;;;;10.71;55.07;94180.97;5081932;28;20044;-85
2022/12/06 11:05:52;;;;;;;17.63;6.95;;;;;;;10.76;55.03;94162.16;5086092;28;20028;-86
2022/12/06 11:08:24;;;;;;;14.20;6.88;;;;;;;10.80;55.04;94165.78;5084844;28;20055;-79
2022/12/06 11:10:52;;;;;;;17.88;7.85;;;;;;;10.86;54.78;94150.47;5083902;28;20095;-79
2022/12/06 11:13:24;;;;;;;14.38;7.15;;;;;;;10.88;54.95;94157.06;5085459;28;20020;-79
2022/12/06 11:16:00;;;;;;;21.60;7.32;;;;;;;10.94;54.67;94155.81;5085384;28;20028;-79
2022/12/06 11:18:28;;;;;;;23.67;7.82;;;;;;;10.97;54.44;94155.22;5085416;28;20055;-79
2022/12/06 11:20:55;;;;;;;17.17;7.95;;;;;;;10.96;54.13;94142.97;5085289;28;20012;-79
2022/12/06 11:23:23;;;;;;;19.80;9.52;;;;;;;10.94;54.38;94144.38;5085601;28;20257;-79
2022/12/06 11:25:59;;;;;;;24.05;10.00;;;;;;;10.84;54.98;94151.53;5085138;28;20055;-79
2022/12/06 11:28:48;;;;;;;16.90;9.70;;;;;;;10.89;55.04;94136.50;5083464;28;20035;-79
2022/12/06 11:31:31;;;;;;;27.75;11.18;;;;;;;10.88;55.27;94134.94;5083330;28;20027;-79
2022/12/06 11:33:58;;;;;;;18.77;8.50;;;;;;;10.96;55.37;94131.53;5083513;28;20021;-79
2022/12/06 11:36:24;;;;;;;20.30;7.47;;;;;;;11.07;55.48;94127.47;5083379;28;20024;-79
2022/12/06 11:38:50;;;;;;;15.73;8.10;;;;;;;11.12;54.81;94130.00;5083254;28;20020;-79
2022/12/06 11:41:36;;;;;;;19.45;8.07;;;;;;;11.25;54.48;94141.66;5083452;28;20036;-79
2022/12/06 11:44:02;;;;;;;14.45;7.50;;;;;;;11.30;54.18;94141.50;5085009;28;20130;-79
2022/12/06 11:46:27;;;;;;;18.48;7.70;;;;;;;11.40;54.00;94133.22;5085158;28;20016;-80
2022/12/06 11:49:03;;;;;;;20.40;7.75;;;;;;;11.43;53.85;94135.25;5084477;28;20112;-80
2022/12/06 11:51:28;;;;;;;22.55;7.35;;;;;;;11.45;53.83;94132.28;5100800;28;20316;-79
2022/12/06 11:54:05;;;;;;;21.65;8.95;;;;;;;11.52;53.21;94131.81;5084967;28;20016;-75
2022/12/06 11:56:35;;;;;;;17.83;7.43;;;;;;;11.49;53.14;94119.09;5084852;28;20073;-76
2022/12/06 11:59:27;;;;;;;19.17;8.57;;;;;;;11.48;53.01;94120.19;5084692;28;20044;-74
2022/12/06 12:01:55;;;;;;;16.55;8.68;;;;;;;11.42;53.57;94123.03;5079807;28;20246;-76
2022/12/06 12:04:37;;;;;;;20.30;10.05;;;;;;;11.40;53.83;94119.88;5084858;28;20017;-77
2022/12/06 12:07:08;;;;;;;;;;;;;;;11.33;53.78;94113.41;5085202;28;20086;-76
2022/12/06 12:09:45;;;;;;;17.88;8.75;;;;;;;11.23;53.81;94114.50;5084498;28;19904;-76
2022/12/06 12:12:16;;;;;;;24.15;11.00;;;;;;;11.16;54.38;94109.63;5084323;28;20224;-76
2022/12/06 12:14:43;;;;;;;19.52;9.20;;;;;;;11.13;54.75;94114.78;5084189;28;20016;-75